PWSweather.com
Personal Weather Stations
Station Observations
BSWETTER1
Bswetter.de, BraunschweigDE 38106

Bswetter.deBraunschweigDE 38106

Lat: 52.2751483, Lon: 10.5434341

Elevation: 295

Station Type: Davis Vantage II Pro Plus Aktiv

http://bswetter.de/

Latest ConditionsUpdated 1:00:10 PM GMT+01:01 Friday, Jun 23, 2017
Currently Today's Max Today's Min Today's Average
Temperature 71.5°F21.9°C 71.5°F21.9°C 62.6°F17.0°C 65.4°F18.6°C
Dew Point 57.8°F14.3°C 64.4°F18.0°C 57.1°F13.9°C 59.9°F15.5°C
Winds 10.4 mph W16.7 kmh W 15.0 mph W24.1 kmh W - 8.4 mph 13.5 kmh
Wind Gusts 12.7 mph20.4 kmh 26.5 mph42.6 kmh - -
Humidity 62% 95% 61% 83%
Pressure 29.90 in1012.5 mb 29.90 in1012.5 mb 29.75 in1007.5 mb -
Precipitation - 0.02 in0.5 mm - -
Hour Temp Dew Point Humidity Winds Wind Gusts Pressure Precip Precip Rate Daily Precip Total
01:00 PM 71.5°F21.9°C 57.8°F14.3°C 62% 10.4 mph W16.7 kmh W 12.7 mph20.4 kmh 29.90 in1012.5 mb - 0.00 in0.0 mm 0.02 in0.5 mm
12:55 PM 71.4°F21.9°C 57.2°F14.0°C 61% 12.7 mph W20.4 kmh W 18.4 mph29.6 kmh 29.90 in1012.5 mb - 0.00 in0.0 mm 0.02 in0.5 mm
12:50 PM 71.3°F21.8°C 57.2°F14.0°C 61% 10.4 mph W16.7 kmh W 18.4 mph29.6 kmh 29.90 in1012.5 mb - 0.00 in0.0 mm 0.02 in0.5 mm
12:45 PM 71.2°F21.8°C 57.1°F13.9°C 61% 11.5 mph W18.5 kmh W 17.3 mph27.8 kmh 29.90 in1012.5 mb - 0.00 in0.0 mm 0.02 in0.5 mm
12:40 PM 71.0°F21.7°C 57.8°F14.3°C 63% 11.5 mph WNW18.5 kmh WNW 18.4 mph29.6 kmh 29.90 in1012.5 mb - 0.00 in0.0 mm 0.02 in0.5 mm
12:35 PM 70.9°F21.6°C 57.7°F14.3°C 63% 13.8 mph WNW22.2 kmh WNW 18.4 mph29.6 kmh 29.90 in1012.5 mb - 0.00 in0.0 mm 0.02 in0.5 mm
12:30 PM 70.7°F21.5°C 57.9°F14.4°C 64% 9.2 mph W14.8 kmh W 17.3 mph27.8 kmh 29.90 in1012.5 mb - 0.00 in0.0 mm 0.02 in0.5 mm
12:25 PM 70.4°F21.3°C 57.6°F14.2°C 64% 15.0 mph W24.1 kmh W 19.6 mph31.5 kmh 29.90 in1012.5 mb - 0.00 in0.0 mm 0.02 in0.5 mm
12:20 PM 70.6°F21.4°C 58.3°F14.6°C 65% 13.8 mph W22.2 kmh W 19.6 mph31.5 kmh 29.90 in1012.5 mb - 0.00 in0.0 mm 0.02 in0.5 mm
12:15 PM 70.6°F21.4°C 58.3°F14.6°C 65% 9.2 mph WSW14.8 kmh WSW 11.5 mph18.5 kmh 29.90 in1012.5 mb - 0.00 in0.0 mm 0.02 in0.5 mm
12:10 PM 70.6°F21.4°C 58.3°F14.6°C 65% 10.4 mph W16.7 kmh W 16.1 mph25.9 kmh 29.90 in1012.5 mb - 0.00 in0.0 mm 0.02 in0.5 mm
12:00 PM 70.1°F21.2°C 57.8°F14.3°C 65% 10.4 mph NW16.7 kmh NW 12.7 mph20.4 kmh 29.90 in1012.5 mb - 0.00 in0.0 mm 0.02 in0.5 mm
11:55 AM 69.9°F21.1°C 57.6°F14.2°C 65% 10.4 mph W16.7 kmh W 26.5 mph42.6 kmh 29.90 in1012.5 mb - 0.00 in0.0 mm 0.02 in0.5 mm
11:50 AM 69.9°F21.1°C 57.6°F14.2°C 65% 15.0 mph WNW24.1 kmh WNW 19.6 mph31.5 kmh 29.90 in1012.5 mb - 0.00 in0.0 mm 0.02 in0.5 mm
11:45 AM 70.0°F21.1°C 58.1°F14.5°C 66% 12.7 mph W20.4 kmh W 19.6 mph31.5 kmh 29.89 in1012.2 mb - 0.00 in0.0 mm 0.02 in0.5 mm
11:40 AM 70.2°F21.2°C 58.3°F14.6°C 66% 12.7 mph W20.4 kmh W 19.6 mph31.5 kmh 29.89 in1012.2 mb - 0.00 in0.0 mm 0.02 in0.5 mm
11:35 AM 70.0°F21.1°C 58.5°F14.7°C 67% 9.2 mph W14.8 kmh W 17.3 mph27.8 kmh 29.89 in1012.2 mb - 0.00 in0.0 mm 0.02 in0.5 mm
11:30 AM 69.8°F21.0°C 58.3°F14.6°C 67% 6.9 mph WSW11.1 kmh WSW 12.7 mph20.4 kmh 29.89 in1012.2 mb - 0.00 in0.0 mm 0.02 in0.5 mm
11:25 AM 69.6°F20.9°C 58.6°F14.8°C 68% 9.2 mph WNW14.8 kmh WNW 11.5 mph18.5 kmh 29.89 in1012.2 mb - 0.00 in0.0 mm 0.02 in0.5 mm
11:20 AM 69.3°F20.7°C 58.3°F14.6°C 68% 10.4 mph WNW16.7 kmh WNW 19.6 mph31.5 kmh 29.89 in1012.2 mb - 0.00 in0.0 mm 0.02 in0.5 mm
11:15 AM 69.0°F20.6°C 58.0°F14.4°C 68% 12.7 mph W20.4 kmh W 18.4 mph29.6 kmh 29.89 in1012.2 mb - 0.00 in0.0 mm 0.02 in0.5 mm
11:10 AM 68.8°F20.4°C 58.2°F14.6°C 69% 11.5 mph WNW18.5 kmh WNW 17.3 mph27.8 kmh 29.89 in1012.2 mb - 0.00 in0.0 mm 0.02 in0.5 mm
11:00 AM 68.3°F20.2°C 58.1°F14.5°C 70% 11.5 mph WSW18.5 kmh WSW 16.1 mph25.9 kmh 29.89 in1012.2 mb - 0.00 in0.0 mm 0.02 in0.5 mm
10:55 AM 68.2°F20.1°C 58.4°F14.7°C 71% 9.2 mph W14.8 kmh W 13.8 mph22.2 kmh 29.89 in1012.2 mb - 0.00 in0.0 mm 0.02 in0.5 mm
10:50 AM 68.0°F20.0°C 58.3°F14.6°C 71% 11.5 mph W18.5 kmh W 19.6 mph31.5 kmh 29.89 in1012.2 mb - 0.00 in0.0 mm 0.02 in0.5 mm
10:45 AM 67.9°F19.9°C 58.1°F14.5°C 71% 8.1 mph WSW13.0 kmh WSW 17.3 mph27.8 kmh 29.89 in1012.2 mb - 0.00 in0.0 mm 0.02 in0.5 mm
10:40 AM 67.9°F19.9°C 58.5°F14.7°C 72% 11.5 mph W18.5 kmh W 16.1 mph25.9 kmh 29.89 in1012.2 mb - 0.00 in0.0 mm 0.02 in0.5 mm
10:35 AM 67.7°F19.8°C 58.3°F14.6°C 72% 5.8 mph W9.3 kmh W 12.7 mph20.4 kmh 29.89 in1012.2 mb - 0.00 in0.0 mm 0.02 in0.5 mm
10:30 AM 67.7°F19.8°C 58.3°F14.6°C 72% 12.7 mph W20.4 kmh W 19.6 mph31.5 kmh 29.89 in1012.2 mb - 0.00 in0.0 mm 0.02 in0.5 mm
10:25 AM 67.7°F19.8°C 58.7°F14.8°C 73% 10.4 mph NW16.7 kmh NW 12.7 mph20.4 kmh 29.89 in1012.2 mb - 0.00 in0.0 mm 0.02 in0.5 mm
10:20 AM 67.6°F19.8°C 59.0°F15.0°C 74% 10.4 mph W16.7 kmh W 17.3 mph27.8 kmh 29.88 in1011.9 mb - 0.00 in0.0 mm 0.02 in0.5 mm
10:15 AM 67.2°F19.6°C 59.0°F15.0°C 75% 8.1 mph NW13.0 kmh NW 10.4 mph16.7 kmh 29.88 in1011.9 mb - 0.00 in0.0 mm 0.02 in0.5 mm
10:10 AM 67.0°F19.4°C 59.2°F15.1°C 76% 5.8 mph W9.3 kmh W 17.3 mph27.8 kmh 29.88 in1011.9 mb - 0.00 in0.0 mm 0.02 in0.5 mm
10:00 AM 66.6°F19.2°C 58.4°F14.7°C 75% 8.1 mph NW13.0 kmh NW 12.7 mph20.4 kmh 29.88 in1011.9 mb - 0.00 in0.0 mm 0.02 in0.5 mm
09:55 AM 66.6°F19.2°C 58.4°F14.7°C 75% 3.5 mph NW5.6 kmh NW 9.2 mph14.8 kmh 29.88 in1011.9 mb - 0.00 in0.0 mm 0.02 in0.5 mm
09:50 AM 66.6°F19.2°C 58.4°F14.7°C 75% 8.1 mph NW13.0 kmh NW 11.5 mph18.5 kmh 29.88 in1011.9 mb - 0.00 in0.0 mm 0.02 in0.5 mm
09:45 AM 66.5°F19.2°C 58.0°F14.4°C 74% 13.8 mph NW22.2 kmh NW 16.1 mph25.9 kmh 29.88 in1011.9 mb - 0.00 in0.0 mm 0.02 in0.5 mm
09:40 AM 66.5°F19.2°C 58.3°F14.6°C 75% 11.5 mph NW18.5 kmh NW 17.3 mph27.8 kmh 29.88 in1011.9 mb - 0.00 in0.0 mm 0.02 in0.5 mm
09:35 AM 66.3°F19.1°C 58.1°F14.5°C 75% 9.2 mph NW14.8 kmh NW 12.7 mph20.4 kmh 29.88 in1011.9 mb - 0.00 in0.0 mm 0.02 in0.5 mm
09:30 AM 66.2°F19.0°C 58.1°F14.5°C 75% 4.6 mph W7.4 kmh W 8.1 mph13.0 kmh 29.88 in1011.9 mb - 0.00 in0.0 mm 0.02 in0.5 mm
09:25 AM 66.1°F18.9°C 57.9°F14.4°C 75% 9.2 mph W14.8 kmh W 12.7 mph20.4 kmh 29.88 in1011.9 mb - 0.00 in0.0 mm 0.02 in0.5 mm
09:20 AM 66.0°F18.9°C 57.8°F14.3°C 75% 9.2 mph NW14.8 kmh NW 15.0 mph24.1 kmh 29.88 in1011.9 mb - 0.00 in0.0 mm 0.02 in0.5 mm
09:15 AM 65.8°F18.8°C 58.0°F14.4°C 76% 8.1 mph WNW13.0 kmh WNW 12.7 mph20.4 kmh 29.88 in1011.9 mb - 0.00 in0.0 mm 0.02 in0.5 mm
09:10 AM 65.6°F18.7°C 58.2°F14.6°C 77% 6.9 mph WNW11.1 kmh WNW 10.4 mph16.7 kmh 29.87 in1011.5 mb - 0.00 in0.0 mm 0.02 in0.5 mm
09:00 AM 65.3°F18.5°C 58.3°F14.6°C 78% 8.1 mph WNW13.0 kmh WNW 15.0 mph24.1 kmh 29.87 in1011.5 mb - 0.00 in0.0 mm 0.02 in0.5 mm
08:55 AM 65.3°F18.5°C 58.3°F14.6°C 78% 8.1 mph W13.0 kmh W 9.2 mph14.8 kmh 29.87 in1011.5 mb - 0.00 in0.0 mm 0.02 in0.5 mm
08:50 AM 65.4°F18.6°C 58.3°F14.6°C 78% 8.1 mph WNW13.0 kmh WNW 12.7 mph20.4 kmh 29.86 in1011.2 mb - 0.00 in0.0 mm 0.02 in0.5 mm
08:45 AM 65.4°F18.6°C 58.0°F14.4°C 77% 10.4 mph W16.7 kmh W 18.4 mph29.6 kmh 29.86 in1011.2 mb - 0.00 in0.0 mm 0.02 in0.5 mm
08:40 AM 65.3°F18.5°C 58.3°F14.6°C 78% 10.4 mph WNW16.7 kmh WNW 13.8 mph22.2 kmh 29.86 in1011.2 mb - 0.00 in0.0 mm 0.02 in0.5 mm
08:35 AM 65.2°F18.4°C 58.9°F14.9°C 80% 8.1 mph WSW13.0 kmh WSW 18.4 mph29.6 kmh 29.86 in1011.2 mb - 0.00 in0.0 mm 0.02 in0.5 mm
08:30 AM 65.2°F18.4°C 58.9°F14.9°C 80% 8.1 mph W13.0 kmh W 11.5 mph18.5 kmh 29.86 in1011.2 mb - 0.00 in0.0 mm 0.02 in0.5 mm
08:25 AM 65.1°F18.4°C 58.8°F14.9°C 80% 9.2 mph W14.8 kmh W 12.7 mph20.4 kmh 29.86 in1011.2 mb - 0.00 in0.0 mm 0.02 in0.5 mm
08:20 AM 65.3°F18.5°C 58.9°F14.9°C 80% 15.0 mph W24.1 kmh W 19.6 mph31.5 kmh 29.86 in1011.2 mb - 0.00 in0.0 mm 0.02 in0.5 mm
08:15 AM 65.4°F18.6°C 59.4°F15.2°C 81% 6.9 mph W11.1 kmh W 11.5 mph18.5 kmh 29.86 in1011.2 mb - 0.00 in0.0 mm 0.02 in0.5 mm
08:10 AM 65.4°F18.6°C 59.1°F15.1°C 80% 6.9 mph W11.1 kmh W 9.2 mph14.8 kmh 29.86 in1011.2 mb - 0.00 in0.0 mm 0.02 in0.5 mm
08:00 AM 65.3°F18.5°C 59.3°F15.2°C 81% 11.5 mph WNW18.5 kmh WNW 17.3 mph27.8 kmh 29.85 in1010.8 mb - 0.00 in0.0 mm 0.02 in0.5 mm
07:55 AM 65.0°F18.3°C 59.4°F15.2°C 82% 6.9 mph W11.1 kmh W 11.5 mph18.5 kmh 29.85 in1010.8 mb - 0.00 in0.0 mm 0.02 in0.5 mm
07:50 AM 64.9°F18.3°C 59.6°F15.3°C 83% 8.1 mph W13.0 kmh W 16.1 mph25.9 kmh 29.85 in1010.8 mb - 0.00 in0.0 mm 0.02 in0.5 mm
07:45 AM 64.8°F18.2°C 59.9°F15.5°C 84% 9.2 mph W14.8 kmh W 16.1 mph25.9 kmh 29.85 in1010.8 mb - 0.00 in0.0 mm 0.02 in0.5 mm
07:40 AM 64.6°F18.1°C 60.0°F15.6°C 85% 5.8 mph NW9.3 kmh NW 11.5 mph18.5 kmh 29.85 in1010.8 mb - 0.00 in0.0 mm 0.02 in0.5 mm
07:35 AM 64.4°F18.0°C 60.1°F15.6°C 86% 4.6 mph W7.4 kmh W 11.5 mph18.5 kmh 29.85 in1010.8 mb - 0.00 in0.0 mm 0.02 in0.5 mm
07:30 AM 64.2°F17.9°C 59.6°F15.3°C 85% 10.4 mph W16.7 kmh W 16.1 mph25.9 kmh 29.84 in1010.5 mb - 0.00 in0.0 mm 0.02 in0.5 mm
07:25 AM 64.0°F17.8°C 59.4°F15.2°C 85% 9.2 mph W14.8 kmh W 13.8 mph22.2 kmh 29.84 in1010.5 mb - 0.00 in0.0 mm 0.02 in0.5 mm
07:20 AM 63.9°F17.7°C 59.3°F15.2°C 85% 9.2 mph WNW14.8 kmh WNW 11.5 mph18.5 kmh 29.84 in1010.5 mb - 0.00 in0.0 mm 0.02 in0.5 mm
07:15 AM 63.8°F17.7°C 59.2°F15.1°C 85% 5.8 mph WNW9.3 kmh WNW 10.4 mph16.7 kmh 29.84 in1010.5 mb - 0.00 in0.0 mm 0.02 in0.5 mm
07:10 AM 63.7°F17.6°C 59.1°F15.1°C 85% 9.2 mph WNW14.8 kmh WNW 11.5 mph18.5 kmh 29.83 in1010.2 mb - 0.00 in0.0 mm 0.02 in0.5 mm
07:00 AM 63.6°F17.6°C 59.3°F15.2°C 86% 8.1 mph WNW13.0 kmh WNW 11.5 mph18.5 kmh 29.83 in1010.2 mb - 0.00 in0.0 mm 0.02 in0.5 mm
06:55 AM 63.6°F17.6°C 59.3°F15.2°C 86% 10.4 mph W16.7 kmh W 16.1 mph25.9 kmh 29.83 in1010.2 mb - 0.00 in0.0 mm 0.02 in0.5 mm
06:50 AM 63.5°F17.5°C 59.6°F15.3°C 87% 9.2 mph WNW14.8 kmh WNW 11.5 mph18.5 kmh 29.83 in1010.2 mb - 0.00 in0.0 mm 0.02 in0.5 mm
06:45 AM 63.5°F17.5°C 59.6°F15.3°C 87% 8.1 mph WNW13.0 kmh WNW 12.7 mph20.4 kmh 29.83 in1010.2 mb - 0.00 in0.0 mm 0.02 in0.5 mm
06:40 AM 63.5°F17.5°C 59.6°F15.3°C 87% 6.9 mph WSW11.1 kmh WSW 9.2 mph14.8 kmh 29.82 in1009.8 mb - 0.00 in0.0 mm 0.02 in0.5 mm
06:35 AM 63.5°F17.5°C 59.6°F15.3°C 87% 8.1 mph WSW13.0 kmh WSW 15.0 mph24.1 kmh 29.82 in1009.8 mb - 0.00 in0.0 mm 0.02 in0.5 mm
06:30 AM 63.4°F17.4°C 59.8°F15.4°C 88% 6.9 mph WNW11.1 kmh WNW 11.5 mph18.5 kmh 29.82 in1009.8 mb - 0.00 in0.0 mm 0.02 in0.5 mm
06:25 AM 63.4°F17.4°C 59.7°F15.4°C 88% 8.1 mph W13.0 kmh W 11.5 mph18.5 kmh 29.82 in1009.8 mb - 0.00 in0.0 mm 0.02 in0.5 mm
06:20 AM 63.3°F17.4°C 59.7°F15.4°C 88% 6.9 mph NW11.1 kmh NW 10.4 mph16.7 kmh 29.82 in1009.8 mb - 0.00 in0.0 mm 0.02 in0.5 mm
06:15 AM 63.3°F17.4°C 59.7°F15.4°C 88% 5.8 mph W9.3 kmh W 11.5 mph18.5 kmh 29.81 in1009.5 mb - 0.00 in0.0 mm 0.02 in0.5 mm
06:10 AM 63.3°F17.4°C 59.7°F15.4°C 88% 8.1 mph W13.0 kmh W 15.0 mph24.1 kmh 29.81 in1009.5 mb - 0.00 in0.0 mm 0.02 in0.5 mm
06:00 AM 63.3°F17.4°C 59.7°F15.4°C 88% 8.1 mph W13.0 kmh W 11.5 mph18.5 kmh 29.81 in1009.5 mb - 0.00 in0.0 mm 0.02 in0.5 mm
05:55 AM 63.2°F17.3°C 59.6°F15.3°C 88% 8.1 mph WNW13.0 kmh WNW 10.4 mph16.7 kmh 29.81 in1009.5 mb - 0.00 in0.0 mm 0.02 in0.5 mm
05:50 AM 63.3°F17.4°C 59.7°F15.4°C 88% 8.1 mph W13.0 kmh W 10.4 mph16.7 kmh 29.81 in1009.5 mb - 0.00 in0.0 mm 0.02 in0.5 mm
05:45 AM 63.3°F17.4°C 59.7°F15.4°C 88% 8.1 mph W13.0 kmh W 13.8 mph22.2 kmh 29.80 in1009.1 mb - 0.00 in0.0 mm 0.02 in0.5 mm
05:40 AM 63.3°F17.4°C 59.7°F15.4°C 88% 8.1 mph WNW13.0 kmh WNW 12.7 mph20.4 kmh 29.80 in1009.1 mb - 0.00 in0.0 mm 0.02 in0.5 mm
05:35 AM 63.3°F17.4°C 59.7°F15.4°C 88% 5.8 mph NW9.3 kmh NW 6.9 mph11.1 kmh 29.80 in1009.1 mb - 0.00 in0.0 mm 0.02 in0.5 mm
05:30 AM 63.3°F17.4°C 60.0°F15.6°C 89% 9.2 mph W14.8 kmh W 11.5 mph18.5 kmh 29.80 in1009.1 mb - 0.00 in0.0 mm 0.02 in0.5 mm
05:25 AM 63.4°F17.4°C 60.1°F15.6°C 89% 10.4 mph W16.7 kmh W 12.7 mph20.4 kmh 29.80 in1009.1 mb - 0.00 in0.0 mm 0.02 in0.5 mm
05:20 AM 63.4°F17.4°C 60.1°F15.6°C 89% 10.4 mph W16.7 kmh W 15.0 mph24.1 kmh 29.80 in1009.1 mb - 0.00 in0.0 mm 0.02 in0.5 mm
05:15 AM 63.4°F17.4°C 60.4°F15.8°C 90% 10.4 mph W16.7 kmh W 19.6 mph31.5 kmh 29.80 in1009.1 mb - 0.00 in0.0 mm 0.02 in0.5 mm
05:10 AM 63.5°F17.5°C 60.5°F15.8°C 90% 5.8 mph W9.3 kmh W 10.4 mph16.7 kmh 29.80 in1009.1 mb - 0.00 in0.0 mm 0.02 in0.5 mm
05:00 AM 63.4°F17.4°C 60.4°F15.8°C 90% 9.2 mph WNW14.8 kmh WNW 11.5 mph18.5 kmh 29.80 in1009.1 mb - 0.00 in0.0 mm 0.02 in0.5 mm
04:55 AM 63.4°F17.4°C 60.7°F15.9°C 91% 8.1 mph W13.0 kmh W 12.7 mph20.4 kmh 29.79 in1008.8 mb - 0.00 in0.0 mm 0.02 in0.5 mm
04:50 AM 63.4°F17.4°C 60.7°F15.9°C 91% 6.9 mph WSW11.1 kmh WSW 17.3 mph27.8 kmh 29.79 in1008.8 mb - 0.00 in0.0 mm 0.02 in0.5 mm
04:45 AM 63.3°F17.4°C 60.6°F15.9°C 91% 6.9 mph WNW11.1 kmh WNW 11.5 mph18.5 kmh 29.79 in1008.8 mb - 0.00 in0.0 mm 0.02 in0.5 mm
04:40 AM 63.3°F17.4°C 60.6°F15.9°C 91% 8.1 mph WNW13.0 kmh WNW 17.3 mph27.8 kmh 29.78 in1008.5 mb - 0.00 in0.0 mm 0.02 in0.5 mm
04:35 AM 63.3°F17.4°C 60.6°F15.9°C 91% 9.2 mph WNW14.8 kmh WNW 15.0 mph24.1 kmh 29.78 in1008.5 mb - 0.00 in0.0 mm 0.02 in0.5 mm
04:30 AM 63.2°F17.3°C 60.8°F16.0°C 92% 4.6 mph W7.4 kmh W 11.5 mph18.5 kmh 29.78 in1008.5 mb - 0.00 in0.0 mm 0.02 in0.5 mm
04:25 AM 63.2°F17.3°C 60.8°F16.0°C 92% 9.2 mph W14.8 kmh W 17.3 mph27.8 kmh 29.78 in1008.5 mb - 0.00 in0.0 mm 0.02 in0.5 mm
04:20 AM 63.2°F17.3°C 60.8°F16.0°C 92% 10.4 mph W16.7 kmh W 15.0 mph24.1 kmh 29.78 in1008.5 mb - 0.00 in0.0 mm 0.02 in0.5 mm
04:15 AM 63.1°F17.3°C 60.7°F15.9°C 92% 8.1 mph W13.0 kmh W 13.8 mph22.2 kmh 29.77 in1008.1 mb - 0.00 in0.0 mm 0.02 in0.5 mm
04:10 AM 63.1°F17.3°C 60.7°F15.9°C 92% 8.1 mph WSW13.0 kmh WSW 10.4 mph16.7 kmh 29.77 in1008.1 mb - 0.00 in0.0 mm 0.02 in0.5 mm
04:00 AM 62.9°F17.2°C 60.8°F16.0°C 93% 6.9 mph WSW11.1 kmh WSW 9.2 mph14.8 kmh 29.77 in1008.1 mb - 0.00 in0.0 mm 0.02 in0.5 mm
03:55 AM 62.9°F17.2°C 60.8°F16.0°C 93% 6.9 mph W11.1 kmh W 13.8 mph22.2 kmh 29.77 in1008.1 mb - 0.00 in0.0 mm 0.02 in0.5 mm
03:50 AM 62.8°F17.1°C 60.7°F15.9°C 93% 8.1 mph W13.0 kmh W 15.0 mph24.1 kmh 29.76 in1007.8 mb - 0.00 in0.0 mm 0.02 in0.5 mm
03:45 AM 62.7°F17.1°C 60.7°F15.9°C 93% 6.9 mph W11.1 kmh W 9.2 mph14.8 kmh 29.76 in1007.8 mb - 0.00 in0.0 mm 0.02 in0.5 mm
03:40 AM 62.7°F17.1°C 60.6°F15.9°C 93% 5.8 mph W9.3 kmh W 9.2 mph14.8 kmh 29.77 in1008.1 mb - 0.00 in0.0 mm 0.02 in0.5 mm
03:35 AM 62.6°F17.0°C 60.5°F15.8°C 93% 4.6 mph W7.4 kmh W 10.4 mph16.7 kmh 29.76 in1007.8 mb - 0.00 in0.0 mm 0.02 in0.5 mm
03:30 AM 62.6°F17.0°C 60.8°F16.0°C 94% 5.8 mph WNW9.3 kmh WNW 9.2 mph14.8 kmh 29.76 in1007.8 mb - 0.00 in0.0 mm 0.02 in0.5 mm
03:25 AM 62.6°F17.0°C 60.8°F16.0°C 94% 6.9 mph W11.1 kmh W 16.1 mph25.9 kmh 29.76 in1007.8 mb - 0.00 in0.0 mm 0.02 in0.5 mm
03:20 AM 62.6°F17.0°C 60.8°F16.0°C 94% 6.9 mph W11.1 kmh W 12.7 mph20.4 kmh 29.76 in1007.8 mb - 0.00 in0.0 mm 0.02 in0.5 mm
03:15 AM 62.6°F17.0°C 60.8°F16.0°C 94% 6.9 mph WSW11.1 kmh WSW 13.8 mph22.2 kmh 29.76 in1007.8 mb - 0.00 in0.0 mm 0.02 in0.5 mm
03:10 AM 62.7°F17.1°C 60.6°F15.9°C 93% 8.1 mph WSW13.0 kmh WSW 12.7 mph20.4 kmh 29.76 in1007.8 mb - 0.00 in0.0 mm 0.02 in0.5 mm
03:00 AM 62.8°F17.1°C 60.7°F15.9°C 93% 8.1 mph WSW13.0 kmh WSW 11.5 mph18.5 kmh 29.76 in1007.8 mb - 0.00 in0.0 mm 0.02 in0.5 mm
02:55 AM 62.9°F17.2°C 60.9°F16.1°C 93% 10.4 mph WSW16.7 kmh WSW 12.7 mph20.4 kmh 29.76 in1007.8 mb - 0.00 in0.0 mm 0.02 in0.5 mm
02:50 AM 63.0°F17.2°C 60.9°F16.1°C 93% 6.9 mph WSW11.1 kmh WSW 19.6 mph31.5 kmh 29.75 in1007.5 mb - 0.00 in0.0 mm 0.02 in0.5 mm
02:45 AM 63.1°F17.3°C 61.1°F16.2°C 93% 8.1 mph WSW13.0 kmh WSW 11.5 mph18.5 kmh 29.75 in1007.5 mb - 0.01 in0.3 mm 0.02 in0.5 mm
02:40 AM 63.3°F17.4°C 60.9°F16.1°C 92% 10.4 mph WSW16.7 kmh WSW 12.7 mph20.4 kmh 29.75 in1007.5 mb - 0.01 in0.3 mm 0.01 in0.3 mm
02:35 AM 63.4°F17.4°C 61.1°F16.2°C 92% 10.4 mph WSW16.7 kmh WSW 15.0 mph24.1 kmh 29.75 in1007.5 mb - 0.01 in0.3 mm 0.01 in0.3 mm
02:30 AM 63.6°F17.6°C 61.2°F16.2°C 92% 8.1 mph WSW13.0 kmh WSW 13.8 mph22.2 kmh 29.75 in1007.5 mb - 0.00 in0.0 mm 0.00 in0.0 mm
02:25 AM 63.8°F17.7°C 61.1°F16.2°C 91% 10.4 mph WSW16.7 kmh WSW 13.8 mph22.2 kmh 29.76 in1007.8 mb - 0.00 in0.0 mm 0.00 in0.0 mm
02:20 AM 64.0°F17.8°C 61.3°F16.3°C 91% 5.8 mph WSW9.3 kmh WSW 8.1 mph13.0 kmh 29.76 in1007.8 mb - 0.00 in0.0 mm 0.00 in0.0 mm
02:15 AM 64.1°F17.8°C 61.1°F16.2°C 90% 6.9 mph WSW11.1 kmh WSW 11.5 mph18.5 kmh 29.76 in1007.8 mb - 0.00 in0.0 mm 0.00 in0.0 mm
02:10 AM 64.3°F17.9°C 61.3°F16.3°C 90% 8.1 mph WSW13.0 kmh WSW 11.5 mph18.5 kmh 29.76 in1007.8 mb - 0.00 in0.0 mm 0.00 in0.0 mm
02:00 AM 64.5°F18.1°C 61.2°F16.2°C 89% 6.9 mph WSW11.1 kmh WSW 9.2 mph14.8 kmh 29.76 in1007.8 mb - 0.00 in0.0 mm 0.00 in0.0 mm
01:55 AM 64.6°F18.1°C 61.3°F16.3°C 89% 6.9 mph WSW11.1 kmh WSW 13.8 mph22.2 kmh 29.76 in1007.8 mb - 0.00 in0.0 mm 0.00 in0.0 mm
01:50 AM 64.7°F18.2°C 61.4°F16.3°C 89% 9.2 mph WSW14.8 kmh WSW 13.8 mph22.2 kmh 29.76 in1007.8 mb - 0.00 in0.0 mm 0.00 in0.0 mm
01:45 AM 64.7°F18.2°C 61.4°F16.3°C 89% 8.1 mph WSW13.0 kmh WSW 11.5 mph18.5 kmh 29.76 in1007.8 mb - 0.00 in0.0 mm 0.00 in0.0 mm
01:40 AM 64.7°F18.2°C 61.7°F16.5°C 90% 6.9 mph WSW11.1 kmh WSW 10.4 mph16.7 kmh 29.76 in1007.8 mb - 0.00 in0.0 mm 0.00 in0.0 mm
01:35 AM 64.7°F18.2°C 61.7°F16.5°C 90% 4.6 mph WSW7.4 kmh WSW 13.8 mph22.2 kmh 29.76 in1007.8 mb - 0.00 in0.0 mm 0.00 in0.0 mm
01:30 AM 64.7°F18.2°C 61.7°F16.5°C 90% 10.4 mph WSW16.7 kmh WSW 12.7 mph20.4 kmh 29.76 in1007.8 mb - 0.00 in0.0 mm 0.00 in0.0 mm
01:25 AM 64.8°F18.2°C 61.8°F16.6°C 90% 6.9 mph WSW11.1 kmh WSW 10.4 mph16.7 kmh 29.76 in1007.8 mb - 0.00 in0.0 mm 0.00 in0.0 mm
01:20 AM 64.8°F18.2°C 62.1°F16.7°C 91% 9.2 mph WSW14.8 kmh WSW 13.8 mph22.2 kmh 29.76 in1007.8 mb - 0.00 in0.0 mm 0.00 in0.0 mm
01:15 AM 64.9°F18.3°C 62.2°F16.8°C 91% 8.1 mph WSW13.0 kmh WSW 13.8 mph22.2 kmh 29.76 in1007.8 mb - 0.00 in0.0 mm 0.00 in0.0 mm
01:10 AM 65.0°F18.3°C 62.6°F17.0°C 92% 6.9 mph WSW11.1 kmh WSW 10.4 mph16.7 kmh 29.76 in1007.8 mb - 0.00 in0.0 mm 0.00 in0.0 mm
01:00 AM 65.1°F18.4°C 63.0°F17.2°C 93% 3.5 mph WSW5.6 kmh WSW 3.5 mph5.6 kmh 29.77 in1008.1 mb - 0.00 in0.0 mm 0.00 in0.0 mm
12:55 AM 65.2°F18.4°C 63.1°F17.3°C 93% 2.3 mph WSW3.7 kmh WSW 8.1 mph13.0 kmh 29.77 in1008.1 mb - 0.00 in0.0 mm 0.00 in0.0 mm
12:50 AM 65.2°F18.4°C 63.1°F17.3°C 93% 5.8 mph WSW9.3 kmh WSW 6.9 mph11.1 kmh 29.77 in1008.1 mb - 0.00 in0.0 mm 0.00 in0.0 mm
12:45 AM 65.4°F18.6°C 63.6°F17.6°C 94% 3.5 mph WSW5.6 kmh WSW 6.9 mph11.1 kmh 29.77 in1008.1 mb - 0.00 in0.0 mm 0.00 in0.0 mm
12:40 AM 65.5°F18.6°C 64.0°F17.8°C 95% 8.1 mph W13.0 kmh W 9.2 mph14.8 kmh 29.77 in1008.1 mb - 0.00 in0.0 mm 0.00 in0.0 mm
12:35 AM 65.9°F18.8°C 64.4°F18.0°C 95% 6.9 mph W11.1 kmh W 12.7 mph20.4 kmh 29.77 in1008.1 mb - 0.00 in0.0 mm 0.00 in0.0 mm
12:30 AM 65.8°F18.8°C 64.3°F17.9°C 95% 4.6 mph SW7.4 kmh SW 8.1 mph13.0 kmh 29.77 in1008.1 mb - 0.00 in0.0 mm 0.00 in0.0 mm
12:25 AM 65.7°F18.7°C 64.2°F17.9°C 95% 4.6 mph SW7.4 kmh SW 10.4 mph16.7 kmh 29.77 in1008.1 mb - 0.00 in0.0 mm 0.00 in0.0 mm
12:20 AM 65.6°F18.7°C 64.1°F17.8°C 95% 4.6 mph W7.4 kmh W 9.2 mph14.8 kmh 29.77 in1008.1 mb - 0.00 in0.0 mm 0.00 in0.0 mm
12:15 AM 65.4°F18.6°C 63.9°F17.7°C 95% 8.1 mph SW13.0 kmh SW 11.5 mph18.5 kmh 29.76 in1007.8 mb - 0.00 in0.0 mm 0.00 in0.0 mm
12:10 AM 65.3°F18.5°C 63.8°F17.7°C 95% 4.6 mph WSW7.4 kmh WSW 8.1 mph13.0 kmh 29.76 in1007.8 mb - 0.00 in0.0 mm 0.00 in0.0 mm
12:00 AM 65.2°F18.4°C 63.7°F17.6°C 95% 3.5 mph SW5.6 kmh SW 4.6 mph7.4 kmh 29.76 in1007.8 mb - 0.00 in0.0 mm 0.00 in0.0 mm